AirNav   Everest Fuels
 
 1244 users online  

KVDF Tampa Executive Airport
Tampa, Florida, USA

GOING TO TAMPA?


FAA INFORMATION EFFECTIVE 10 SEPTEMBER 2020

Location

FAA Identifier: VDF
Lat/Long: 28-00-50.3540N 082-20-42.9330W
28-00.839233N 082-20.715550W
28.0139872,-82.3452592
(estimated)
Elevation: 21.1 ft. / 6.4 m (surveyed)
Variation: 04W (2000)
From city: 6 miles E of TAMPA, FL
Time zone: UTC -4 (UTC -5 during Standard Time)
Zip code: 33610

Airport Operations

Airport use: Open to the public
Activation date: 05/1957
Control tower: no
ARTCC: MIAMI CENTER
FSS: SAINT PETERSBURG FLIGHT SERVICE STATION
NOTAMs facility: VDF (NOTAM-D service available)
Attendance: MON-FRI 0700-2200, ALL SAT-SUN 0700-1900
Wind indicator: lighted
Segmented circle: yes
Lights: ACTVT MALSR RWY 23; REIL RWY 05, 18, 36; PAPI RWY 05, 23, 18, 36; MIRL RWY 05/23, 18/36 - CTAF.
Beacon: white-green (lighted land airport)
Operates sunset to sunrise.

Airport Communications

CTAF/UNICOM: 122.7
WX AWOS-3: 121.125 (813-630-0924)
TAMPA APPROACH: 119.9
TAMPA DEPARTURE: 119.9
WX AWOS-3 at TPF (8 nm SW): 118.925 (813-251-6824)
WX AWOS-3 at PCM (10 nm E): 120.025 (813-764-8259)
WX ASOS at TPA (10 nm W): 126.45 (813-873-7228)
WX AWOS-3PT at ZPH (16 nm NE): 118.975 (813-780-0031)
WX AWOS-3PT at LAL (17 nm E): 118.025 (863-834-2030)
WX ASOS at PIE (19 nm W): 134.5 (727-531-3456)

Nearby radio navigation aids

VOR radial/distance  VOR name  Freq  Var
LALr274/17.6LAKELAND VORTAC116.0001E
PIEr075/19.1ST PETERSBURG VORTAC116.4005W
SRQr023/38.2SARASOTA VOR/DME117.0005W

 
NDB name  Hdg/Dist  Freq  Var  ID
COSME119/10.436805WTP - .--.

Airport Services

Fuel available: 100LL JET-A
Parking: hangars and tiedowns
Airframe service: MAJOR
Powerplant service: MAJOR
Bottled oxygen: NONE
Bulk oxygen: NONE

Runway Information

Runway 5/23

Dimensions: 5000 x 100 ft. / 1524 x 30 m
Surface: asphalt/concrete, in good condition
Weight bearing capacity: 
PCN 9 /F/A/Y/T
Single wheel: 34.0
Double wheel: 52.0
Runway edge lights: medium intensity
RUNWAY 5  RUNWAY 23
Latitude: 28-00.727325N28-01.336483N
Longitude: 082-20.862127W082-20.235100W
Elevation: 19.2 ft.21.0 ft.
Traffic pattern: leftleft
Runway heading: 046 magnetic, 042 true226 magnetic, 222 true
Displaced threshold: no800 ft.
Declared distances: TORA:4574 TODA:4574 ASDA:4956 LDA:4956TORA:5000 TODA:5000 ASDA:5000 LDA:4200
Markings: precision, in fair conditionprecision, in fair condition
Visual slope indicator: 2-light PAPI on left (3.02 degrees glide path)2-light PAPI on left (3.10 degrees glide path)
Approach lights: MALSR: 1,400 foot medium intensity approach lighting system with runway alignment indicator lights
Runway end identifier lights: yesno
Touchdown point: yes, no lightsyes, no lights
Instrument approach: ILS/DME
Obstructions: 35 ft. trees, 200 ft. from runway, 410 ft. left of centerline, 1:1 slope to clear
RWY 5 HAS 35 FT TREES 0 FT FM RWY END AND 410 FT LEFT.
17 ft. trees, 369 ft. from runway, 1:1 slope to clear
RY 23 APCH SLOPE 50:1 TO DSPLCD THLD.

Runway 18/36

Dimensions: 3219 x 75 ft. / 981 x 23 m
Surface: asphalt, in good condition
Weight bearing capacity: 
PCN 21 /F/B/X/T
Single wheel: 59.0
Double wheel: 84.0
Runway edge lights: medium intensity
RUNWAY 18  RUNWAY 36
Latitude: 28-00.805620N28-00.274385N
Longitude: 082-20.973797W082-20.975733W
Elevation: 18.4 ft.18.5 ft.
Traffic pattern: leftleft
Runway heading: 184 magnetic, 180 true004 magnetic, 000 true
Declared distances: TORA:3219 TODA:3219 ASDA:3219 LDA:3219TORA:3219 TODA:3219 ASDA:3219 LDA:3219
Markings: nonprecision, in fair conditionnonprecision, in fair condition
Visual slope indicator: 4-light PAPI on right (3.80 degrees glide path)2-light PAPI on left (3.40 degrees glide path)
Runway end identifier lights: yesyes
Touchdown point: yes, no lightsyes, no lights
Obstructions: 20 ft. tree, 480 ft. from runway, 100 ft. left of centerline, 14:1 slope to clear
RWY 18 APCH SLOPE 14:1 DUE TO 20 FT TREE 480 FT FM RWY END AND 100 FT LEFT.
123 ft. pole, lighted, 2895 ft. from runway, 20 ft. left of centerline, 22:1 slope to clear

Airport Ownership and Management from official FAA records

Ownership: Publicly-owned
Owner: HILLSBOROUGH COUNTY AVIATION AUTH
PO BOX 22287
TAMPA, FL 33622
Phone (813) 870-8776
Manager: BRETT W FAY, C.M.
PO BOX 22287
TAMPA, FL 33622
Phone (813) 870-8735

Airport Operational Statistics

Aircraft based on the field: 176
Single engine airplanes: 147
Multi engine airplanes: 19
Jet airplanes: 5
Helicopters: 5
    
Aircraft operations: avg 259/day *
53% local general aviation
47% transient general aviation
<1% air taxi
<1% military
* for 12-month period ending 13 December 2017

Additional Remarks

AFTER HRS FUEL AND SVCS AVBL. JET SINGLE POINT FUELING AND LAV SVS AVBL. CTC FBO ON CALL ATTENDANT AT 813-695-6097.
CTC GENERAL AVIATION DEPT AT 813-870-8770.
NOISE ABATEMENT PROCEDURES IN EFFECT FOR RY 18. NO TURNS UNTIL OVER INTERSTATE. NO TURNS BLO 400 FT AGL.
WHEN DEPARTING RY O5 BE ALERT FOR MALSR LGT FIXTURE LCTD 55 FT BYD RY END & 9 FT ABV RY END ELEV.
FOR CD CTC TAMPA APCH ON 119.9.

Instrument Procedures

NOTE: All procedures below are presented as PDF files. If you need a reader for these files, you should download the free Adobe Reader.

NOT FOR NAVIGATION. Please procure official charts for flight.
FAA instrument procedures published for use from 10 September 2020 at 0901Z to 08 October 2020 at 0900z.

 
STARs - Standard Terminal Arrivals
BLOND FIVE (RNAV)   download (294KB)
BRDGE EIGHT   download (254KB)
DADES SIX (RNAV)   2 pages: [1] [2] (342KB)
DEAKK FIVE (RNAV)   download (273KB)
FOOXX FIVE (RNAV)   download (284KB)
LZARD SIX   download (259KB)
 
IAPs - Instrument Approach Procedures
ILS OR LOC RWY 23   download (256KB)
RNAV (GPS) RWY 05   download (266KB)
RNAV (GPS) RWY 18   download (224KB)
RNAV (GPS) RWY 23   download (245KB)
NOTE: Special Alternate Minimums apply   download (22KB)
NOTE: Special Take-Off Minimums/Departure Procedures apply   download (162KB)

Other nearby airports with instrument procedures:

KTPF - Peter O Knight Airport (8 nm SW)
KPCM - Plant City Airport (10 nm E)
KTPA - Tampa International Airport (10 nm W)
KMCF - MacDill Air Force Base (14 nm SW)
KZPH - Zephyrhills Municipal Airport (16 nm NE)
KLAL - Lakeland Linder International Airport (17 nm E)
KPIE - St Pete-Clearwater International Airport (19 nm W)
 
Loc | Ops | Rwys | IFR | FBO | Links
Com | Nav | Svcs | Stats | Notes


 
Area around KVDF (Tampa Executive Airport)
 
Road maps at: MapQuest Bing Google
 
Aerial photo
WARNING: Photo may not be current or correct
Aerial photo of KVDF (Tampa Executive Airport)
Photo courtesy of PhotosFromTheAir.com
Photo taken 27-Feb-2012
looking east.

Do you have a better or more recent aerial photo of Tampa Executive Airport that you would like to share? If so, please send us your photo.

 
Sectional chart

 
Airport diagram
CAUTION: Diagram may not be current
Diagram of KVDF (Tampa Executive Airport)
 
Airport distance calculator
Flying to Tampa Executive Airport? Find the distance to fly.

From to KVDF

Sunrise and sunset
Times for 28-Sep-2020
 Local
(UTC-4)
 Zulu
(UTC)
Morning civil twilight06:5910:59
Sunrise07:2211:22
Sunset19:1723:17
Evening civil twilight19:4123:41

Current date and time
Zulu (UTC)  28-Sep-2020 23:04:33
Local (UTC-4)  28-Sep-2020 19:04:33
 
METAR
KVDF 282255Z AUTO 09004KT 10SM SCT008 27/25 A2988 RMK AO2
KTPF 
8nm SW 
282255Z AUTO 11004KT 10SM BKN028 OVC035 28/23 A2987 RMK AO2
KPCM 
10nm E 
282255Z AUTO 09003KT 10SM SCT006 26/25 A2989 RMK AO2 P0001
KTPA 
10nm W 
282253Z 35006KT 10SM FEW024 FEW036 SCT140 BKN250 29/22 A2986 RMK AO2 SLP112 CB DSNT SE TCU DSNT E-SE T02890222
KMCF 
13nm SW 
282256Z AUTO 06007KT 10SM SCT020 BKN027 28/24 A2986 RMK AO2 BKN V SCT SLP115 T02800238 FZRANO $
KZPH 
16nm NE 
282255Z AUTO 09004KT 10SM CLR 25/24 A2988 RMK A02 LTG DSNT NE AND W T02520238
KLAL 
18nm E 
282250Z 00000KT 10SM RA SCT060 25/23 A2988
KPIE 
19nm W 
282253Z 02006KT 10SM FEW100 28/24 A2986 RMK AO2 SLP111 T02830244
TAF
KTPA 
10nm W 
281720Z 2818/2924 24008KT P6SM VCTS SCT020CB BKN100 FM282100 30007KT P6SM VCTS SCT030CB BKN050 OVC100 FM290200 VRB04KT P6SM VCSH FEW020 SCT100 BKN250 FM291500 21007KT P6SM VCTS BKN035CB OVC100 FM292100 25014KT P6SM VCTS OVC040CB
KMCF 
13nm SW 
282152Z 2817/2923 VRB06KT 9999 FEW020 SCT040 QNH2990INS BECMG 2820/2821 03006KT 9999 FEW020 SCT080 QNH2985INS BECMG 2911/2912 15006KT 9000 SHRA SCT010 BKN020 QNH2988INS BECMG 2916/2917 20009KT 9000 -TSRA SCT030 BKN040CB QNH2882INS TX30/2819Z TN25/2911Z
KLAL 
18nm E 
281956Z 2820/2918 28007KT P6SM VCTS BKN035CB TEMPO 2820/2822 VRB15G25KT 2SM +TSRA BKN025CB FM290000 VRB03KT P6SM VCSH SCT035 SCT120 BKN250 FM290800 VRB03KT P6SM SCT005 BKN015 FM291600 19006KT P6SM VCTS SCT025CB BKN100
KPIE 
19nm W 
281720Z 2818/2918 29008KT P6SM VCTS SCT025CB BKN100 TEMPO 2818/2820 BKN025CB FM290200 VRB04KT P6SM VCSH FEW020 SCT100 BKN250 FM291500 19009KT P6SM VCTS BKN035CB OVC100
NOTAMs
Click for the latest NOTAMs
NOTAMs are issued by the DoD/FAA and will open in a separate window not controlled by AirNav.

 

 
 

FBO, Fuel Providers, and Aircraft Ground Support

  
 Business Name 
 
 Contact 
 
 Services / Description 
 
Fuel Prices
 
Comments
  
Skyport Aviation UNICOM 122.70
813-626-1515
[web site]
[email]
Airport management, Aviation fuel, Aircraft ground handling, Oxygen service, Aircraft parking (ramp or tiedown), Hangars, Hangar leasing / sales, ...
More info and photos of Skyport Aviation
 
NATA Safety 1st   U.S. Government AIR Card   CAA Preferred FBO   UVair   World Fuel Contract Fuel   World Fuel Rewards   Contract Fuel   Courtesy car   Hertz   Wireless Internet Access (WiFi)  
 
World Fuel Services
100LL Jet A
FS $5.44 $5.31 
 Updated 24-Sep-2020
 
   6 read write
Alternatives at nearby airports
IMPORTANT: Note that the FBOs below are NOT at KVDF but at other nearby airports. Do not expect services from these FBOs to be available at KVDF.
Located at KLAL
Sheltair
UNICOM 122.95
863-647-3911
[web site]
[email]
At KLAL (Lakeland Linder International Airport), 17 miles E

U.S. Customs, ample hangar and ramp space, superior ground support and concierge services, complimentary interior cleaning, catering, crew cars, canteen market and complimentary refreshments, executive conference room, pilot and passenger lounges.
More info and photos of Sheltair (KLAL)
Located at KLAL
Avfuel
100LL Jet A
FS $4.95 $5.05 
SS $3.45 --- 
 Updated 25-Sep-2020
 
   3 read write
FS=Full service
SS=Self service
Update Fuel Prices
 

Would you like to see your business listed on this page?

 If your business provides an interesting product or service to pilots, flight crews, aircraft, or users of the Tampa Executive Airport, you should consider listing it here.  To start the listing process, click on the button below
 
Add a business
 

Other Pages about Tampa Executive Airport

Update a link
 
Copyright © AirNav, LLC. All rights reserved. Privacy Policy  Contact